KGZH

Evergreen Regional / Middleton Field Airport

Evergreen, Alabama, USA
METAR KGZH 191553Z AUTO 00000KT 10SM CLR 18/09 A3020 RMK AO2 SLP225 T01780089
Observed Flight Rules
Nov-19 @ 15:53 UTC (30 minutes ago) Visual Flight Rules
Visibility Clouds
10 miles
  • Clear skies
Temperatures Readings
Current 18°C / 64°F
Dewpoint 9°C / 48°F
Humidity 56%
Altimeter 30.2" Hg
Pressure 1022.5 hPa
Elevation 78
METAR KGZH 191553Z AUTO 00000KT 10SM CLR 18/09 A3020 RMK AO2 SLP225 T01780089
Observed Flight Rules
Nov-19 @ 15:53 UTC
(30 minutes ago)
VFR
Clouds
  • Clear skies
Temperature Dewpoint
18°C / 64°F 9°C / 48°F
Humidity Altimeter Pressure
56% 30.2" Hg 1022.5 hPa